Data for 11/17/2012

Time Sea-Level Adjusted Pressure Absolute Pressure Temperature Relative Humidity Dew Point   
(mb) (inHg) (mb) (inHg) (C) (F) (%) (C) (F)
00:05 1018 30.06 847 25.01 1.7 35.1 79 -1.5 29.4
00:10 1018 30.06 847 25.01 2.2 35.9 76 -1.6 29.1
00:15 1018 30.06 847 25.01 2.9 37.1 73 -1.5 29.3
00:20 1018 30.06 847 25.01 2.9 37.2 74 -1.3 29.7
00:25 1018 30.06 847 25.01 2.7 36.9 74 -1.4 29.5
00:30 1018 30.06 847 25.01 2.5 36.5 75 -1.4 29.5
00:35 1018 30.06 847 25.01 2.1 35.8 78 -1.3 29.6
00:40 1018 30.06 847 25.01 1.7 35.1 79 -1.6 29.2
00:45 1018 30.06 847 25.01 1.5 34.6 80 -1.6 29.1
00:50 1018 30.06 847 25.01 1.3 34.3 80 -1.9 28.6
00:55 1018 30.06 847 25.01 0.9 33.6 81 -2 28.4
01:00 1018 30.06 847 25.01 1.3 34.3 78 -2.1 28.3
01:05 1018 30.06 847 25.01 2.2 36 75 -1.8 28.8
01:10 1018 30.06 847 25.01 2.1 35.8 77 -1.5 29.4
01:15 1018 30.06 847 25.01 1.9 35.5 76 -1.9 28.6
01:20 1018 30.06 847 25.01 2.2 35.9 74 -1.9 28.6
01:25 1018 30.06 847 25.01 1.9 35.5 75 -2 28.4
01:30 1018 30.06 847 25.01 2.1 35.7 75 -2 28.5
01:35 1018 30.06 847 25.01 1.7 35 77 -1.9 28.6
01:40 1018 30.06 847 25.01 1.5 34.7 77 -2.2 28.1
01:45 1018 30.06 847 25.01 1.5 34.7 76 -2.3 27.9
01:50 1018 30.06 847 25.01 1.6 34.9 76 -2.1 28.2
01:55 1018 30.06 847 25.01 1.7 35.1 75 -2.2 28
02:00 1018 30.06 847 25.01 1.3 34.4 76 -2.4 27.7
02:05 1018 30.06 847 25.01 1.2 34.2 77 -2.4 27.6
02:10 1018 30.06 847 25.01 1 33.8 77 -2.6 27.4
02:15 1018 30.06 847 25.01 1 33.9 77 -2.5 27.5
02:20 1018 30.06 847 25.01 1.3 34.3 77 -2.4 27.8
02:25 1018 30.06 847 25.01 1.5 34.6 75 -2.5 27.6
02:30 1018 30.06 847 25.01 1.4 34.5 75 -2.5 27.5
02:35 1018 30.06 847 25.01 1.5 34.7 74 -2.6 27.3
02:40 1018 30.06 847 25.01 1.4 34.5 75 -2.5 27.5
02:45 1018 30.06 847 25.01 1.2 34.2 76 -2.6 27.4
02:50 1018 30.06 847 25.01 1.2 34.2 75 -2.7 27.1
02:55 1018 30.06 847 25.01 1.1 34 76 -2.6 27.3
03:00 1018 30.06 847 25.01 1.2 34.1 76 -2.6 27.3
03:05 1018 30.06 847 25.01 1.2 34.2 76 -2.5 27.4
03:10 1018 30.06 847 25.01 1.3 34.3 75 -2.6 27.4
03:15 1018 30.06 847 25.01 1.7 35.1 74 -2.5 27.6
03:20 1018 30.06 847 25.01 0.8 33.4 78 -2.5 27.4
03:25 1018 30.06 847 25.01 0.8 33.5 77 -2.7 27.1
03:30 1018 30.06 847 25.01 0.9 33.6 77 -2.7 27.2
03:35 1018 30.06 847 25.01 0.9 33.6 77 -2.7 27.2
03:40 1018 30.06 847 25.01 0.2 32.3 79 -3.1 26.5
03:45 1018 30.06 847 25.01 0.1 32.2 79 -3 26.5
03:50 1018 30.06 847 25.01 0.6 33 77 -3 26.6
03:55 1018 30.06 847 25.01 0.2 32.3 78 -3.2 26.3
04:00 1018 30.06 847 25.01 0.3 32.6 77 -3.2 26.3
04:05 1018 30.06 847 25.01 0.3 32.6 76 -3.3 26
04:10 1018 30.06 847 25.01 0.9 33.7 74 -3.2 26.3
04:15 1018 30.06 847 25.01 1 33.8 75 -2.9 26.8
04:20 1018 30.06 847 25.01 0.9 33.6 75 -3 26.6
04:25 1018 30.06 847 25.01 0.9 33.6 75 -3 26.6
04:30 1018 30.06 847 25.01 0.8 33.4 76 -3 26.5
04:35 1017 30.03 847 25.01 0.8 33.4 76 -2.9 26.7
04:40 1017 30.03 847 25.01 1 33.8 74 -3.2 26.3
04:45 1017 30.03 847 25.01 0.4 32.7 77 -3.2 26.3
04:50 1017 30.03 847 25.01 0.3 32.5 77 -3.3 26.1
04:55 1017 30.03 847 25.01 0.1 32.2 78 -3.3 26.1
05:00 1017 30.03 847 25.01 0.2 32.4 78 -3.2 26.2
05:05 1017 30.03 847 25.01 0.4 32.7 77 -3.3 26.1
05:10 1017 30.03 847 25.01 0.8 33.4 75 -3.2 26.2
05:15 1017 30.03 847 25.01 1.1 33.9 73 -3.2 26.3
05:20 1017 30.03 847 25.01 1 33.7 74 -3.1 26.5
05:25 1018 30.06 847 25.01 0.7 33.3 75 -3.1 26.4
05:30 1018 30.06 847 25.01 0.9 33.6 74 -3.2 26.3
05:35 1018 30.06 847 25.01 1 33.7 74 -3.2 26.3
05:40 1018 30.06 847 25.01 0.7 33.3 75 -3.2 26.3
05:45 1018 30.06 847 25.01 0.5 32.9 76 -3.2 26.2
05:50 1018 30.06 847 25.01 0.4 32.7 77 -3.3 26.1
05:55 1018 30.06 847 25.01 0.2 32.3 78 -3.3 26.1
06:00 1018 30.06 847 25.01 -0.1 31.8 79 -3.3 26.1
06:05 1018 30.06 847 25.01 0.1 32.1 78 -3.4 25.9
06:10 1018 30.06 847 25.01 0.3 32.5 77 -3.3 26
06:15 1018 30.06 847 25.01 0.5 33 76 -3.3 26.1
06:20 1017 30.03 847 25.01 0.6 33.1 74 -3.4 25.8
06:25 1017 30.03 847 25.01 0.8 33.4 74 -3.4 25.9
06:30 1017 30.03 847 25.01 0.8 33.4 74 -3.4 25.9
06:35 1017 30.03 847 25.01 0.7 33.3 73 -3.5 25.7
06:40 1017 30.03 847 25.01 0.7 33.2 74 -3.5 25.7
06:45 1017 30.03 847 25.01 0.6 33.1 74 -3.6 25.5
06:50 1017 30.03 847 25.01 0.4 32.8 74 -3.7 25.3
06:55 1017 30.03 847 25.01 0.1 32.2 76 -3.6 25.4
07:00 1017 30.03 847 25.01 0.1 32.2 76 -3.6 25.5
07:05 1017 30.03 847 25.01 0.1 32.2 76 -3.6 25.4
07:10 1017 30.03 847 25.01 0.6 33 73 -3.7 25.4
07:15 1017 30.03 847 25.01 0.4 32.6 76 -3.5 25.8
07:20 1017 30.03 847 25.01 0.2 32.4 76 -3.6 25.5
07:25 1017 30.03 847 25.01 0.2 32.4 74 -3.8 25.1
07:30 1017 30.03 846 24.98 0.3 32.5 74 -3.8 25.1
07:35 1017 30.03 846 24.98 0.5 33 73 -3.8 25.1
07:40 1017 30.03 846 24.98 0.7 33.3 72 -3.7 25.3
07:45 1017 30.03 846 24.98 0.7 33.2 72 -3.7 25.3
07:50 1017 30.03 846 24.98 0.5 32.9 73 -3.7 25.3
07:55 1017 30.03 846 24.98 0.4 32.7 73 -3.8 25.1
08:00 1017 30.03 846 24.98 0.3 32.5 74 -3.8 25.1
08:05 1017 30.03 846 24.98 0.1 32.3 75 -3.8 25.2
08:10 1017 30.03 846 24.98 0 32 75 -4 24.9
08:15 1017 30.03 846 24.98 0.1 32.2 74 -4 24.8
08:20 1017 30.03 846 24.98 0.2 32.3 73 -4.2 24.5
08:25 1017 30.03 846 24.98 0.4 32.8 72 -4.1 24.6
08:30 1017 30.03 846 24.98 0.6 33 72 -3.9 24.9
08:35 1017 30.03 846 24.98 0.7 33.3 71 -4 24.8
08:40 1017 30.03 846 24.98 0.8 33.5 71 -3.9 25
08:45 1017 30.03 846 24.98 0.7 33.3 71 -3.9 25
08:50 1017 30.03 846 24.98 0.9 33.6 70 -4 24.8
08:55 1017 30.03 846 24.98 1.3 34.3 68 -3.9 24.9
09:00 1017 30.03 847 25.01 1.6 34.9 67 -3.9 24.9
09:05 1017 30.03 847 25.01 1.8 35.3 66 -3.8 25.1
09:10 1017 30.03 847 25.01 1.9 35.5 66 -3.8 25.1
09:15 1017 30.03 847 25.01 1.9 35.4 66 -3.9 25
09:20 1017 30.03 847 25.01 1.8 35.2 66 -3.9 25
09:25 1017 30.03 847 25.01 2 35.5 65 -3.9 24.9
09:30 1017 30.03 847 25.01 2.3 36.1 64 -3.8 25.1
09:35 1017 30.03 847 25.01 2.4 36.3 65 -3.6 25.5
09:40 1017 30.03 847 25.01 2.2 36 64 -3.8 25.1
09:45 1018 30.06 847 25.01 2.7 36.8 62 -3.8 25.1
09:50 1018 30.06 847 25.01 3.1 37.6 61 -3.7 25.3
09:55 1018 30.06 847 25.01 3.3 38 59 -3.8 25.1
10:00 1018 30.06 847 25.01 3.5 38.4 60 -3.6 25.6
10:05 1018 30.06 847 25.01 3.6 38.4 60 -3.4 25.8
10:10 1017 30.03 847 25.01 3.4 38.2 60 -3.5 25.6
10:15 1017 30.03 847 25.01 3.4 38.1 60 -3.7 25.4
10:20 1017 30.03 847 25.01 3.5 38.3 60 -3.5 25.6
10:25 1017 30.03 847 25.01 3.8 38.9 58 -3.6 25.4
10:30 1018 30.06 847 25.01 4.2 39.5 58 -3.4 25.9
10:35 1018 30.06 847 25.01 3.9 39 58 -3.6 25.6
10:40 1018 30.06 847 25.01 3.8 38.8 60 -3.3 26
10:45 1018 30.06 847 25.01 3.5 38.3 60 -3.6 25.6
10:50 1018 30.06 847 25.01 3.7 38.7 59 -3.5 25.8
10:55 1018 30.06 847 25.01 4 39.2 59 -3.3 26.1
11:00 1018 30.06 847 25.01 4.1 39.3 58 -3.4 25.9
11:05 1017 30.03 847 25.01 4.3 39.8 57 -3.4 25.9
11:10 1017 30.03 847 25.01 4.5 40.1 57 -3.4 25.9
11:15 1017 30.03 846 24.98 4.7 40.4 56 -3.4 25.9
11:20 1017 30.03 846 24.98 4.8 40.7 55 -3.4 26
11:25 1017 30.03 846 24.98 4.9 40.8 56 -3.2 26.2
11:30 1017 30.03 846 24.98 5.1 41.2 55 -3.2 26.2
11:35 1017 30.03 846 24.98 5.2 41.4 54 -3.2 26.2
11:40 1017 30.03 846 24.98 5.3 41.6 54 -3.2 26.3
11:45 1017 30.03 846 24.98 5.5 41.9 53 -3.3 26
11:50 1017 30.03 846 24.98 5.8 42.4 53 -3 26.6
11:55 1017 30.03 846 24.98 6.2 43.1 51 -3.3 26.1
12:00 1017 30.03 846 24.98 6.7 44 49 -3.2 26.3
12:05 1017 30.03 846 24.98 7 44.6 47 -3.5 25.7
12:10 1017 30.03 846 24.98 8.3 46.9 43 -3.4 25.9
12:15 1017 30.03 846 24.98 9.2 48.6 42 -3 26.6
12:20 1016 30 846 24.98 9 48.1 43 -2.9 26.8
12:25 1016 30 846 24.98 9.1 48.3 43 -2.9 26.8
12:30 1016 30 845 24.95 9.3 48.8 44 -2.2 28
12:35 1016 30 845 24.95 9.2 48.6 43 -2.7 27.1
12:40 1016 30 845 24.95 9.7 49.4 42 -2.6 27.3
12:45 1016 30 845 24.95 10 50 42 -2.3 27.8
12:50 1016 30 845 24.95 9.4 49 43 -2.4 27.6
12:55 1016 30 845 24.95 8.9 48.1 47 -1.7 28.9
13:00 1016 30 845 24.95 8.5 47.2 49 -1.7 28.9
13:05 1016 30 845 24.95 8.4 47.2 43 -3.4 25.9
13:10 1016 30 845 24.95 8.3 47 43 -3.5 25.6
13:15 1016 30 845 24.95 8.9 48.1 42 -3.3 26.1
13:20 1015 29.97 845 24.95 9.1 48.3 46 -1.9 28.5
13:25 1015 29.97 845 24.95 8.8 47.9 44 -2.8 27
13:30 1015 29.97 845 24.95 8.4 47.1 45 -2.7 27.2
13:35 1015 29.97 845 24.95 8.3 46.9 46 -2.8 27
13:40 1015 29.97 844 24.92 8.3 46.9 46 -2.5 27.5
13:45 1015 29.97 844 24.92 7.9 46.3 48 -2.4 27.7
13:50 1015 29.97 844 24.92 8.5 47.4 46 -2.3 27.9
13:55 1015 29.97 844 24.92 8.7 47.7 44 -3 26.7
14:00 1015 29.97 844 24.92 8.8 47.9 44 -2.7 27.1
14:05 1015 29.97 844 24.92 9 48.3 42 -3.2 26.3
14:10 1015 29.97 844 24.92 9.3 48.8 42 -2.9 26.9
14:15 1015 29.97 844 24.92 9.3 48.7 40 -3.5 25.8
14:20 1015 29.97 844 24.92 9.7 49.4 39 -3.5 25.7
14:25 1015 29.97 844 24.92 10 50 39 -3.3 26.1
14:30 1015 29.97 844 24.92 10.2 50.4 38 -3.3 26
14:35 1015 29.97 844 24.92 10.5 50.9 37 -3.6 25.5
14:40 1015 29.97 844 24.92 10.7 51.2 37 -3.4 25.8
14:45 1015 29.97 844 24.92 11.2 52.2 35 -3.5 25.7
14:50 1015 29.97 844 24.92 11.6 52.9 37 -2.5 27.5
14:55 1014 29.94 844 24.92 11.4 52.5 36 -3.1 26.4
15:00 1014 29.94 844 24.92 11.8 53.3 35 -3.1 26.4
15:05 1014 29.94 844 24.92 12.3 54.1 35 -2.7 27.1
15:10 1014 29.94 844 24.92 12.1 53.8 35 -3 26.6
15:15 1014 29.94 844 24.92 12.2 54 34 -3.1 26.4
15:20 1014 29.94 844 24.92 12.3 54.1 35 -2.7 27.1
15:25 1014 29.94 843 24.89 12.3 54.1 35 -2.6 27.3
15:30 1014 29.94 843 24.89 12.2 54 35 -2.7 27.2
15:35 1014 29.94 843 24.89 12.4 54.3 35 -2.5 27.5
15:40 1014 29.94 843 24.89 12.1 53.9 36 -2.5 27.5
15:45 1014 29.94 843 24.89 10.8 51.5 41 -1.9 28.6
15:50 1014 29.94 843 24.89 9.8 49.7 42 -2.3 27.9
15:55 1014 29.94 843 24.89 9.7 49.4 41 -2.8 26.9
16:00 1014 29.94 843 24.89 10.1 50.2 39 -3.3 26.1
16:05 1014 29.94 843 24.89 10.7 51.3 39 -2.7 27.2
16:10 1014 29.94 843 24.89 10.5 50.9 42 -2 28.4
16:15 1014 29.94 843 24.89 10.3 50.6 40 -2.5 27.5
16:20 1014 29.94 843 24.89 10.6 51.1 40 -2.4 27.8
16:25 1014 29.94 843 24.89 10.4 50.8 41 -2.2 28.1
16:30 1014 29.94 843 24.89 9.4 48.8 43 -2.7 27.2
16:35 1014 29.94 843 24.89 8.9 48 45 -2.4 27.7
16:40 1014 29.94 843 24.89 8.8 47.8 46 -2.3 27.9
16:45 1014 29.94 843 24.89 8.2 46.8 47 -2.4 27.8
16:50 1014 29.94 843 24.89 8.1 46.5 48 -2.3 27.8
16:55 1014 29.94 843 24.89 7.7 45.9 51 -1.8 28.7
17:00 1014 29.94 843 24.89 8 46.4 49 -2 28.4
17:05 1014 29.94 843 24.89 8.1 46.6 49 -2 28.4
17:10 1014 29.94 843 24.89 7.7 45.8 49 -2.5 27.6
17:15 1014 29.94 843 24.89 8 46.4 48 -2.3 27.9
17:20 1014 29.94 843 24.89 8.4 47.2 47 -2.3 27.8
17:25 1014 29.94 843 24.89 8.5 47.3 47 -2.1 28.1
17:30 1013 29.91 843 24.89 8.2 46.7 49 -1.9 28.6
17:35 1013 29.91 843 24.89 7.7 45.8 50 -2 28.3
17:40 1013 29.91 843 24.89 7.4 45.3 52 -1.7 28.9
17:45 1013 29.91 843 24.89 7.1 44.8 53 -1.8 28.8
17:50 1013 29.91 842 24.86 6.6 43.9 54 -2 28.4
17:55 1013 29.91 842 24.86 6.5 43.7 53 -2.4 27.7
18:00 1013 29.91 842 24.86 6.8 44.2 51 -2.6 27.3
18:05 1013 29.91 842 24.86 7.3 45.2 49 -2.7 27.2
18:10 1013 29.91 842 24.86 7.5 45.5 50 -2.3 27.9
18:15 1013 29.91 842 24.86 7.5 45.5 50 -2.2 28.1
18:20 1013 29.91 842 24.86 7.2 44.9 52 -2.1 28.2
18:25 1013 29.91 842 24.86 6.9 44.5 52 -2.2 28
18:30 1013 29.91 842 24.86 6.8 44.2 53 -2.2 28
18:35 1013 29.91 842 24.86 6.8 44.3 53 -2.1 28.2
18:40 1013 29.91 842 24.86 6.7 44.1 53 -2.1 28.3
18:45 1013 29.91 842 24.86 6.6 43.8 54 -2 28.3
18:50 1013 29.91 842 24.86 6.4 43.6 54 -2.1 28.2
18:55 1013 29.91 842 24.86 5.9 42.7 55 -2.3 27.9
19:00 1013 29.91 842 24.86 5.9 42.6 55 -2.5 27.5
19:05 1013 29.91 842 24.86 6.2 43.1 53 -2.7 27.1
19:10 1013 29.91 842 24.86 6.6 43.9 53 -2.3 27.8
19:15 1013 29.91 842 24.86 6.3 43.4 54 -2.3 27.9
19:20 1013 29.91 842 24.86 5.7 42.2 58 -2 28.4
19:25 1013 29.91 842 24.86 5.1 41.2 58 -2.5 27.6
19:30 1013 29.91 842 24.86 5.2 41.4 57 -2.5 27.5
19:35 1013 29.91 842 24.86 5.2 41.4 57 -2.6 27.3
19:40 1013 29.91 842 24.86 5.7 42.2 55 -2.8 27
19:45 1013 29.91 842 24.86 5.7 42.3 56 -2.5 27.5
19:50 1013 29.91 842 24.86 5.6 42.1 57 -2.3 27.9
19:55 1013 29.91 842 24.86 5.6 42.1 56 -2.5 27.6
20:00 1012 29.88 842 24.86 6 42.8 55 -2.3 27.8
20:05 1012 29.88 842 24.86 6.3 43.3 53 -2.5 27.4
20:10 1012 29.88 842 24.86 6.3 43.4 54 -2.2 28
20:15 1012 29.88 842 24.86 6 42.9 55 -2.3 27.9
20:20 1012 29.88 842 24.86 5.4 41.7 59 -2 28.3
20:25 1012 29.88 841 24.83 4.7 40.5 60 -2.5 27.6
20:30 1012 29.88 841 24.83 4.5 40.2 61 -2.3 27.9
20:35 1012 29.88 841 24.83 4.6 40.3 61 -2.3 27.8
20:40 1012 29.88 841 24.83 4.6 40.3 61 -2.3 27.9
20:45 1012 29.88 841 24.83 4.8 40.7 60 -2.4 27.7
20:50 1012 29.88 841 24.83 4.8 40.6 60 -2.3 27.9
20:55 1012 29.88 841 24.83 5.1 41.2 58 -2.4 27.8
21:00 1012 29.88 841 24.83 5.6 42.1 55 -2.6 27.3
21:05 1012 29.88 841 24.83 6.4 43.4 53 -2.5 27.5
21:10 1012 29.88 841 24.83 6.2 43.2 54 -2.5 27.5
21:15 1012 29.88 841 24.83 6.2 43.2 53 -2.5 27.4
21:20 1012 29.88 841 24.83 6.3 43.4 53 -2.4 27.6
21:25 1012 29.88 841 24.83 6.4 43.5 55 -2.1 28.2
21:30 1011 29.85 841 24.83 6.2 43.1 55 -2.3 27.9
21:35 1011 29.85 841 24.83 6.1 42.9 56 -1.9 28.5
21:40 1011 29.85 841 24.83 5.7 42.3 58 -2 28.4
21:45 1011 29.85 841 24.83 5.6 42 59 -1.7 28.9
21:50 1011 29.85 840 24.81 5.5 42 59 -1.8 28.7
21:55 1011 29.85 840 24.81 5.6 42.1 58 -2 28.4
22:00 1011 29.85 840 24.81 5.7 42.3 57 -2 28.4
22:05 1011 29.85 840 24.81 6.2 43.2 55 -2.1 28.2
22:10 1011 29.85 840 24.81 6.3 43.3 56 -1.9 28.6
22:15 1011 29.85 840 24.81 6.1 42.9 56 -1.9 28.5
22:20 1011 29.85 840 24.81 5.9 42.7 57 -1.9 28.5
22:25 1011 29.85 840 24.81 5.8 42.4 57 -2 28.4
22:30 1011 29.85 840 24.81 5.7 42.3 57 -2 28.4
22:35 1011 29.85 840 24.81 5.6 42 59 -1.9 28.6
22:40 1011 29.85 840 24.81 5.5 42 58 -1.9 28.5
22:45 1011 29.85 840 24.81 5.7 42.2 58 -1.9 28.6
22:50 1011 29.85 840 24.81 5.6 42.1 59 -1.9 28.6
22:55 1011 29.85 840 24.81 5.6 42.2 58 -2 28.5
23:00 1011 29.85 840 24.81 5.8 42.5 58 -1.9 28.6
23:05 1011 29.85 840 24.81 5.7 42.3 58 -1.9 28.6
23:10 1011 29.85 840 24.81 5.8 42.5 58 -1.9 28.6
23:15 1011 29.85 840 24.81 5.8 42.4 58 -1.8 28.8
23:20 1011 29.85 840 24.81 5.6 42 59 -1.7 28.9
23:25 1011 29.85 840 24.81 5.1 41.1 60 -2 28.4
23:30 1011 29.85 840 24.81 4.7 40.5 61 -2.2 28
23:35 1011 29.85 840 24.81 4.8 40.6 61 -2.2 28.1
23:40 1011 29.85 840 24.81 5 40.9 60 -2.1 28.3
23:45 1011 29.85 840 24.81 5 41.1 61 -1.9 28.6
23:50 1011 29.85 840 24.81 5 41 59 -2.3 27.9
23:55 1011 29.85 840 24.81 5.3 41.5 59 -2 28.4
24:00 1011 29.85 840 24.81 4.9 40.9 61 -2 28.3